createdAt,value
2023-03-22T00:01:19.696Z,100317.16
2023-03-22T00:03:47.864Z,100316.50
2023-03-22T00:06:14.572Z,100310.97
2023-03-22T00:08:41.360Z,100308.00
2023-03-22T00:11:08.485Z,100302.41
2023-03-22T00:13:37.230Z,100302.00
2023-03-22T00:16:05.576Z,100308.38
2023-03-22T00:18:32.253Z,100299.94
2023-03-22T00:20:59.766Z,100295.28
2023-03-22T00:23:27.713Z,100290.75
2023-03-22T00:25:54.214Z,100288.88
2023-03-22T00:28:21.089Z,100284.78
2023-03-22T00:30:56.396Z,100280.00
2023-03-22T00:33:23.308Z,100287.88
2023-03-22T00:35:52.290Z,100285.59
2023-03-22T00:38:21.903Z,100285.50
2023-03-22T00:40:50.412Z,100277.59
2023-03-22T00:43:17.207Z,100280.22
2023-03-22T00:45:43.836Z,100281.16
2023-03-22T00:48:12.585Z,100278.00
2023-03-22T00:50:40.135Z,100278.03
2023-03-22T00:53:07.106Z,100273.38
2023-03-22T00:55:34.003Z,100268.72
2023-03-22T00:58:01.248Z,100268.66
2023-03-22T01:00:28.108Z,100266.69
2023-03-22T01:02:59.628Z,100259.88
2023-03-22T01:05:28.539Z,100257.66
2023-03-22T01:07:55.557Z,100259.78
2023-03-22T01:10:22.813Z,100250.31
2023-03-22T01:12:49.478Z,100255.00
2023-03-22T01:15:16.273Z,100249.03
2023-03-22T01:17:43.247Z,100251.59
2023-03-22T01:20:11.020Z,100244.44
2023-03-22T01:22:37.490Z,100252.41
2023-03-22T01:25:04.851Z,100260.84
2023-03-22T01:27:31.839Z,100259.88
2023-03-22T01:29:58.573Z,100256.38
2023-03-22T01:32:27.937Z,100256.56
2023-03-22T01:34:54.545Z,100242.47
2023-03-22T01:37:22.149Z,100245.19
2023-03-22T01:39:48.667Z,100243.66
2023-03-22T01:42:18.110Z,100235.22
2023-03-22T01:45:05.270Z,100245.59
2023-03-22T01:47:34.464Z,100249.22
2023-03-22T01:50:01.011Z,100241.75
2023-03-22T01:52:27.765Z,100242.69
2023-03-22T01:54:54.738Z,100238.03
2023-03-22T01:57:21.589Z,100239.91
2023-03-22T01:59:50.084Z,100242.69
2023-03-22T02:02:20.241Z,100237.78
2023-03-22T02:04:50.927Z,100224.81
2023-03-22T02:07:26.057Z,100226.63
2023-03-22T02:09:56.367Z,100220.81
2023-03-22T02:12:37.562Z,100217.25
2023-03-22T02:15:11.789Z,100221.25
2023-03-22T02:17:51.436Z,100216.50
2023-03-22T02:20:33.226Z,100209.31
2023-03-22T02:23:13.266Z,100207.22
2023-03-22T02:25:55.010Z,100204.28
2023-03-22T02:28:41.238Z,100202.72
2023-03-22T02:31:21.550Z,100214.06
2023-03-22T02:33:57.368Z,100202.94
2023-03-22T02:36:51.926Z,100211.53
2023-03-22T02:39:31.325Z,100197.19
2023-03-22T02:42:10.142Z,100206.09
2023-03-22T02:44:49.677Z,100202.56
2023-03-22T02:47:43.552Z,100203.06
2023-03-22T02:50:22.400Z,100211.94
2023-03-22T02:53:06.454Z,100202.91
2023-03-22T02:55:51.923Z,100206.56
2023-03-22T02:58:25.406Z,100203.16
2023-03-22T03:00:57.791Z,100203.19
2023-03-22T03:03:29.278Z,100212.31
2023-03-22T03:06:01.393Z,100203.09
2023-03-22T03:08:30.585Z,100204.19
2023-03-22T03:10:57.125Z,100200.84
2023-03-22T03:13:23.675Z,100204.88
2023-03-22T03:15:54.156Z,100200.25
2023-03-22T03:18:39.088Z,100210.41
2023-03-22T03:21:24.017Z,100206.31
2023-03-22T03:24:14.052Z,100203.31
2023-03-22T03:26:49.362Z,100196.16
2023-03-22T03:29:34.490Z,100188.13
2023-03-22T03:32:14.907Z,100189.25
2023-03-22T03:34:49.575Z,100182.13
2023-03-22T03:37:22.507Z,100181.09
2023-03-22T03:40:10.071Z,100174.34
2023-03-22T03:42:44.695Z,100178.56
2023-03-22T03:45:12.345Z,100174.34
2023-03-22T03:47:39.466Z,100172.84
2023-03-22T03:50:07.587Z,100169.09
2023-03-22T03:52:34.688Z,100171.66
2023-03-22T03:55:01.355Z,100174.09
2023-03-22T03:57:28.075Z,100172.38
2023-03-22T03:59:54.594Z,100166.47
2023-03-22T04:02:21.200Z,100162.47
2023-03-22T04:04:47.832Z,100162.91
2023-03-22T04:07:14.504Z,100165.13
2023-03-22T04:09:41.396Z,100162.47
2023-03-22T04:12:09.826Z,100166.88
2023-03-22T04:14:37.537Z,100168.88
2023-03-22T04:17:04.243Z,100163.69
2023-03-22T04:19:31.296Z,100157.16
2023-03-22T04:21:58.019Z,100156.91
2023-03-22T04:24:24.606Z,100158.47
2023-03-22T04:26:52.686Z,100153.34
2023-03-22T04:29:19.321Z,100149.69
2023-03-22T04:31:46.156Z,100140.75
2023-03-22T04:34:13.326Z,100152.47
2023-03-22T04:36:39.946Z,100135.28
2023-03-22T04:39:10.540Z,100135.06
2023-03-22T04:41:37.674Z,100136.84
2023-03-22T04:44:05.679Z,100133.50
2023-03-22T04:46:36.790Z,100134.25
2023-03-22T04:49:04.540Z,100132.03
2023-03-22T04:51:32.242Z,100138.97
2023-03-22T04:53:59.214Z,100129.16
2023-03-22T04:56:25.934Z,100130.09
2023-03-22T04:58:53.817Z,100135.91
2023-03-22T05:01:20.680Z,100129.09
2023-03-22T05:03:47.744Z,100126.53
2023-03-22T05:06:15.197Z,100127.13
2023-03-22T05:08:41.872Z,100127.78
2023-03-22T05:11:12.163Z,100121.72
2023-03-22T05:13:39.983Z,100128.59
2023-03-22T05:16:07.682Z,100127.34
2023-03-22T05:18:34.495Z,100131.00
2023-03-22T05:21:04.205Z,100137.91
2023-03-22T05:23:30.807Z,100127.16
2023-03-22T05:25:58.443Z,100135.16
2023-03-22T05:28:27.184Z,100133.13
2023-03-22T05:30:56.659Z,100135.88
2023-03-22T05:33:23.774Z,100127.94
2023-03-22T05:35:53.254Z,100130.31
2023-03-22T05:38:20.013Z,100137.16
2023-03-22T05:40:46.838Z,100135.88
2023-03-22T05:43:13.385Z,100140.25
2023-03-22T05:45:40.001Z,100144.53
2023-03-22T05:48:07.159Z,100147.41
2023-03-22T05:50:34.497Z,100145.03
2023-03-22T05:53:01.452Z,100142.72
2023-03-22T05:55:31.962Z,100153.28
2023-03-22T05:58:01.303Z,100154.00
2023-03-22T06:00:31.906Z,100161.84
2023-03-22T06:03:03.745Z,100160.84
2023-03-22T06:05:31.996Z,100149.91
2023-03-22T06:07:59.352Z,100154.75
2023-03-22T06:10:27.028Z,100147.53
2023-03-22T06:12:54.168Z,100143.72
2023-03-22T06:15:21.561Z,100156.25
2023-03-22T06:17:48.172Z,100134.13
2023-03-22T06:20:15.590Z,100138.78
2023-03-22T06:22:42.389Z,100139.59
2023-03-22T06:25:10.105Z,100143.22
2023-03-22T06:27:37.119Z,100140.63
2023-03-22T06:30:04.281Z,100151.88
2023-03-22T06:32:30.959Z,100147.53
2023-03-22T06:34:57.589Z,100152.97
2023-03-22T06:37:24.938Z,100158.53
2023-03-22T06:39:53.341Z,100160.34
2023-03-22T06:42:20.158Z,100154.94
2023-03-22T06:44:46.880Z,100160.47
2023-03-22T06:47:13.657Z,100165.38
2023-03-22T06:49:40.412Z,100169.25
2023-03-22T06:52:07.039Z,100173.38
2023-03-22T06:54:34.239Z,100170.44
2023-03-22T06:57:00.795Z,100173.03
2023-03-22T06:59:27.614Z,100177.50
2023-03-22T07:01:54.158Z,100176.84
2023-03-22T07:04:21.029Z,100171.91
2023-03-22T07:06:48.349Z,100171.91
2023-03-22T07:09:15.339Z,100172.31
2023-03-22T07:11:42.202Z,100170.41
2023-03-22T07:14:08.924Z,100172.84
2023-03-22T07:16:35.652Z,100175.13
2023-03-22T07:19:03.497Z,100166.84
2023-03-22T07:21:30.403Z,100163.16
2023-03-22T07:23:56.909Z,100161.28
2023-03-22T07:26:24.084Z,100165.91
2023-03-22T07:28:50.680Z,100177.09
2023-03-22T07:31:17.492Z,100172.91
2023-03-22T07:33:44.361Z,100164.66
2023-03-22T07:36:11.280Z,100165.25
2023-03-22T07:38:38.904Z,100157.47
2023-03-22T07:41:06.320Z,100155.16
2023-03-22T07:43:37.167Z,100152.03
2023-03-22T07:46:10.929Z,100159.31
2023-03-22T07:48:39.060Z,100155.50
2023-03-22T07:51:05.995Z,100160.25
2023-03-22T07:53:32.725Z,100147.56
2023-03-22T07:55:59.434Z,100156.97
2023-03-22T07:58:26.257Z,100153.06
2023-03-22T08:00:53.220Z,100153.16
2023-03-22T08:03:19.917Z,100150.38
2023-03-22T08:05:49.503Z,100151.50
2023-03-22T08:08:16.472Z,100143.25
2023-03-22T08:10:42.974Z,100151.31
2023-03-22T08:13:10.471Z,100139.91
2023-03-22T08:15:38.509Z,100146.84
2023-03-22T08:18:05.462Z,100153.28
2023-03-22T08:20:32.144Z,100137.84
2023-03-22T08:22:58.681Z,100149.88
2023-03-22T08:25:25.384Z,100142.19
2023-03-22T08:27:52.191Z,100145.53
2023-03-22T08:30:19.153Z,100150.13
2023-03-22T08:32:46.159Z,100153.19
2023-03-22T08:35:12.768Z,100148.28
2023-03-22T08:37:40.099Z,100147.50
2023-03-22T08:40:09.573Z,100150.63
2023-03-22T08:42:36.490Z,100148.38
2023-03-22T08:45:03.952Z,100147.50
2023-03-22T08:47:30.562Z,100143.28
2023-03-22T08:49:57.369Z,100137.09
2023-03-22T08:52:23.996Z,100138.41
2023-03-22T08:54:53.355Z,100141.16
2023-03-22T08:57:22.028Z,100135.69
2023-03-22T08:59:48.888Z,100121.78
2023-03-22T09:02:15.826Z,100138.50
2023-03-22T09:04:42.812Z,100130.50
2023-03-22T09:07:09.417Z,100127.75
2023-03-22T09:09:36.230Z,100117.75
2023-03-22T09:12:02.916Z,100120.47
2023-03-22T09:14:29.445Z,100119.59
2023-03-22T09:16:56.062Z,100124.28
2023-03-22T09:19:22.758Z,100128.50
2023-03-22T09:21:49.950Z,100121.13
2023-03-22T09:24:16.529Z,100110.44
2023-03-22T09:26:43.324Z,100111.19
2023-03-22T09:29:13.282Z,100120.50
2023-03-22T09:31:41.364Z,100114.63
2023-03-22T09:34:08.072Z,100108.53
2023-03-22T09:36:34.720Z,100113.56
2023-03-22T09:39:02.433Z,100110.16
2023-03-22T09:41:38.090Z,100091.91
2023-03-22T09:44:08.998Z,100091.94
2023-03-22T09:46:39.200Z,100079.84
2023-03-22T09:49:12.460Z,100076.44
2023-03-22T09:51:42.548Z,100082.19
2023-03-22T09:54:20.129Z,100082.44
2023-03-22T09:57:00.866Z,100076.50
2023-03-22T09:59:39.910Z,100065.16
2023-03-22T10:02:25.745Z,100064.13
2023-03-22T10:05:19.707Z,100065.88
2023-03-22T10:08:02.473Z,100054.00
2023-03-22T10:10:29.872Z,100057.28
2023-03-22T10:13:13.735Z,100061.94
2023-03-22T10:15:45.262Z,100059.06
2023-03-22T10:18:18.837Z,100054.66
2023-03-22T10:21:11.168Z,100061.50
2023-03-22T10:24:16.634Z,100058.53
2023-03-22T10:26:47.626Z,100057.94
2023-03-22T10:29:38.284Z,100056.91
2023-03-22T10:32:21.209Z,100060.06
2023-03-22T10:34:50.751Z,100060.03
2023-03-22T10:37:26.017Z,100057.34
2023-03-22T10:40:01.135Z,100051.78
2023-03-22T10:42:39.753Z,100066.25
2023-03-22T10:45:14.103Z,100048.63
2023-03-22T10:48:01.310Z,100039.38
2023-03-22T10:50:34.139Z,100057.28
2023-03-22T10:53:24.631Z,100050.28
2023-03-22T10:55:51.326Z,100042.88
2023-03-22T10:58:20.608Z,100056.63
2023-03-22T11:00:53.869Z,100050.25
2023-03-22T11:03:36.390Z,100052.78
2023-03-22T11:06:10.689Z,100052.53
2023-03-22T11:08:42.123Z,100043.00
2023-03-22T11:11:23.481Z,100052.19
2023-03-22T11:14:15.041Z,100044.38
2023-03-22T11:16:53.290Z,100045.81
2023-03-22T11:19:34.137Z,100042.31
2023-03-22T11:22:04.560Z,100054.44
2023-03-22T11:24:34.178Z,100042.31
2023-03-22T11:27:05.522Z,100036.59
2023-03-22T11:29:53.750Z,100021.16
2023-03-22T11:32:37.394Z,100023.81
2023-03-22T11:35:28.028Z,100025.34
2023-03-22T11:37:56.144Z,100023.78
2023-03-22T11:40:24.557Z,100009.66
2023-03-22T11:42:58.798Z,100015.06
2023-03-22T11:45:36.868Z,100013.91
2023-03-22T11:48:12.920Z,100033.53
2023-03-22T11:50:42.984Z,100001.22
2023-03-22T11:53:25.388Z,100000.19
2023-03-22T11:55:54.223Z,100006.06
2023-03-22T11:58:28.105Z,99987.72
2023-03-22T12:01:02.054Z,99988.59
2023-03-22T12:03:39.048Z,99978.50
2023-03-22T12:06:18.788Z,99977.28
2023-03-22T12:08:53.125Z,99985.97
2023-03-22T12:11:41.451Z,99983.19
2023-03-22T12:14:17.267Z,99966.00
2023-03-22T12:16:51.418Z,99970.88
2023-03-22T12:19:38.289Z,99970.00
2023-03-22T12:22:18.293Z,99975.88
2023-03-22T12:24:46.115Z,99978.63
2023-03-22T12:27:17.847Z,99964.47
2023-03-22T12:29:51.604Z,99969.56
2023-03-22T12:32:24.354Z,99967.53
2023-03-22T12:34:55.093Z,99972.34
2023-03-22T12:37:33.540Z,99959.75
2023-03-22T12:40:26.823Z,99964.13
2023-03-22T12:43:01.188Z,99966.97
2023-03-22T12:45:31.284Z,99965.88
2023-03-22T12:48:16.623Z,99965.00
2023-03-22T12:51:00.857Z,99958.75
2023-03-22T12:53:33.678Z,99960.34
2023-03-22T12:56:01.241Z,99951.22
2023-03-22T12:58:29.327Z,99946.09
2023-03-22T13:01:21.534Z,99943.88
2023-03-22T13:04:06.115Z,99936.44
2023-03-22T13:06:45.438Z,99945.00
2023-03-22T13:09:50.025Z,99943.59
2023-03-22T13:12:19.236Z,99949.88
2023-03-22T13:15:34.850Z,99943.16
2023-03-22T13:18:32.695Z,99935.88
2023-03-22T13:21:13.514Z,99918.22
2023-03-22T13:23:58.704Z,99919.03
2023-03-22T13:26:33.643Z,99928.56
2023-03-22T13:29:07.815Z,99918.66
2023-03-22T13:31:53.290Z,99916.94
2023-03-22T13:34:30.889Z,99911.00
2023-03-22T13:36:58.931Z,99919.31
2023-03-22T13:39:34.064Z,99910.13
2023-03-22T13:42:22.243Z,99902.88
2023-03-22T13:45:04.728Z,99894.50
2023-03-22T13:47:46.551Z,99890.81
2023-03-22T13:50:24.123Z,99902.47
2023-03-22T13:53:21.525Z,99896.22
2023-03-22T13:55:54.672Z,99892.31
2023-03-22T13:58:31.015Z,99893.00
2023-03-22T14:01:01.084Z,99900.75
2023-03-22T14:03:31.677Z,99886.72
2023-03-22T14:06:13.822Z,99891.38
2023-03-22T14:08:43.453Z,99893.13
2023-03-22T14:11:20.373Z,99891.47
2023-03-22T14:13:51.476Z,99897.00
2023-03-22T14:16:43.875Z,99889.69
2023-03-22T14:19:16.752Z,99901.69
